Time;durP1;ratioP1;P1;durP2;ratioP2;P2;SDS_P1;SDS_P2;PMS_P1;PMS_P2;Temp;Humidity;BMP_temperature;BMP_pressure;BME280_temperature;BME280_humidity;BME280_pressure;Samples;Min_cycle;Max_cycle;Signal;HPM_P1;HPM_P2
2024/04/08 00:00:23;;;;;;;17.63;4.43;;;;;;;-143.50;100.00;59860.19;4970599;28;20030;-70
2024/04/08 00:02:52;;;;;;;14.45;4.30;;;;;;;-143.50;100.00;59860.19;4958142;28;20519;-71
2024/04/08 00:05:19;;;;;;;14.30;3.88;;;;;;;-143.50;100.00;59860.19;4946901;28;20030;-71
2024/04/08 00:07:46;;;;;;;17.98;4.75;;;;;;;-143.50;100.00;59860.19;4973814;28;20035;-71
2024/04/08 00:10:12;;;;;;;16.23;4.10;;;;;;;-143.50;100.00;59860.19;4979050;28;20035;-71
2024/04/08 00:12:39;;;;;;;15.50;4.70;;;;;;;-143.50;100.00;59860.19;4983866;28;20045;-70
2024/04/08 00:15:06;;;;;;;16.38;5.15;;;;;;;-143.50;100.00;59860.19;4978062;28;20121;-70
2024/04/08 00:17:32;;;;;;;15.05;4.40;;;;;;;-143.50;100.00;59860.19;4957045;28;20034;-70
2024/04/08 00:19:59;;;;;;;16.00;4.18;;;;;;;-143.50;100.00;59860.19;4966753;28;20030;-71
2024/04/08 00:22:25;;;;;;;15.63;4.13;;;;;;;-143.50;100.00;59860.19;4963698;28;20023;-71
2024/04/08 00:24:54;;;;;;;16.73;4.82;;;;;;;-143.50;100.00;59860.19;4956622;28;20038;-70
2024/04/08 00:27:21;;;;;;;15.40;4.78;;;;;;;-143.50;100.00;59860.19;4972958;28;20035;-70
2024/04/08 00:29:47;;;;;;;15.77;4.60;;;;;;;-143.50;100.00;59860.19;4953110;28;20031;-71
2024/04/08 00:32:13;;;;;;;15.60;4.75;;;;;;;-143.50;100.00;59860.19;4956483;28;20495;-71
2024/04/08 00:34:40;;;;;;;15.55;4.93;;;;;;;-143.50;100.00;59860.19;4965638;28;20081;-70
2024/04/08 00:37:06;;;;;;;14.93;4.65;;;;;;;-143.50;100.00;59860.19;4960357;28;20529;-71
2024/04/08 00:39:33;;;;;;;14.32;4.40;;;;;;;-143.50;100.00;59860.19;4960289;28;20456;-70
2024/04/08 00:42:00;;;;;;;15.43;4.60;;;;;;;-143.50;100.00;59860.19;4980014;28;20123;-70
2024/04/08 00:44:26;;;;;;;16.10;5.05;;;;;;;-143.50;100.00;59860.19;4973159;28;20030;-71
2024/04/08 00:46:53;;;;;;;15.43;4.53;;;;;;;-143.50;100.00;59860.19;4974659;28;20522;-70
2024/04/08 00:49:19;;;;;;;13.98;4.20;;;;;;;-143.50;100.00;59860.19;4953608;28;20114;-71
2024/04/08 00:51:45;;;;;;;16.30;4.57;;;;;;;-143.50;100.00;59860.19;4951111;28;20030;-71
2024/04/08 00:54:12;;;;;;;15.57;4.35;;;;;;;-143.50;100.00;59860.19;4968476;28;20037;-71
2024/04/08 00:56:43;;;;;;;14.63;4.60;;;;;;;-143.50;100.00;59860.19;4972313;28;20503;-72
2024/04/08 00:59:14;;;;;;;16.77;4.50;;;;;;;-143.50;100.00;59860.19;4970691;28;20035;-70
2024/04/08 01:01:41;;;;;;;15.60;4.93;;;;;;;-143.50;100.00;59860.19;4974356;28;20504;-71
2024/04/08 01:04:07;;;;;;;14.98;4.57;;;;;;;-143.50;100.00;59860.19;4964773;28;20027;-71
2024/04/08 01:06:34;;;;;;;16.33;4.78;;;;;;;-143.50;100.00;59860.19;4928956;29;20038;-71
2024/04/08 01:09:00;;;;;;;17.00;4.80;;;;;;;-143.50;100.00;59860.19;4953969;28;20138;-71
2024/04/08 01:11:27;;;;;;;15.55;4.65;;;;;;;-143.50;100.00;59860.19;4957663;28;20110;-71
2024/04/08 01:13:54;;;;;;;16.08;4.78;;;;;;;-143.50;100.00;59860.19;4966627;28;20113;-71
2024/04/08 01:16:20;;;;;;;16.48;5.03;;;;;;;-143.50;100.00;59860.19;4960208;28;20126;-71
2024/04/08 01:18:46;;;;;;;14.07;3.90;;;;;;;-143.50;100.00;59860.19;4975294;28;20034;-71
2024/04/08 01:21:12;;;;;;;15.07;4.35;;;;;;;-143.50;100.00;59860.19;4974815;28;20031;-71
2024/04/08 01:23:42;;;;;;;17.10;4.80;;;;;;;-143.50;100.00;59860.19;4971217;28;20570;-70
2024/04/08 01:26:08;;;;;;;16.42;4.75;;;;;;;-143.50;100.00;59860.19;4955100;28;20045;-70
2024/04/08 01:28:35;;;;;;;14.65;4.57;;;;;;;-143.50;100.00;59860.19;4969328;28;20034;-71
2024/04/08 01:31:02;;;;;;;15.40;4.47;;;;;;;-143.50;100.00;59860.19;4974813;28;20085;-70
2024/04/08 01:33:28;;;;;;;17.45;4.70;;;;;;;-143.50;100.00;59860.19;4967941;28;20030;-70
2024/04/08 01:35:54;;;;;;;17.90;5.53;;;;;;;-143.50;100.00;59860.19;4961787;28;20041;-70
2024/04/08 01:38:20;;;;;;;16.92;4.82;;;;;;;-143.50;100.00;59860.19;4955287;28;20046;-72
2024/04/08 01:40:49;;;;;;;16.52;5.15;;;;;;;-143.50;100.00;59860.19;4971482;28;20513;-71
2024/04/08 01:43:15;;;;;;;16.52;4.82;;;;;;;-143.50;100.00;59860.19;4963411;28;20454;-71
2024/04/08 01:45:41;;;;;;;14.80;4.50;;;;;;;-143.50;100.00;59860.19;4973521;28;20026;-71
2024/04/08 01:48:08;;;;;;;16.83;5.35;;;;;;;-143.50;100.00;59860.19;4969185;28;20113;-70
2024/04/08 01:50:34;;;;;;;14.95;4.50;;;;;;;-143.50;100.00;59860.19;4969406;28;20486;-71
2024/04/08 01:53:01;;;;;;;15.35;4.28;;;;;;;-143.50;100.00;59860.19;4973862;28;20077;-71
2024/04/08 01:55:27;;;;;;;14.52;4.40;;;;;;;-143.50;100.00;59860.19;4973567;28;20044;-71
2024/04/08 01:57:53;;;;;;;15.10;4.88;;;;;;;-143.50;100.00;59860.19;4976031;28;20113;-70
2024/04/08 02:00:20;;;;;;;14.05;4.85;;;;;;;-143.50;100.00;59860.19;4955450;28;20031;-70
2024/04/08 02:02:46;;;;;;;15.55;4.55;;;;;;;-143.50;100.00;59860.19;4969571;28;20051;-70
2024/04/08 02:05:12;;;;;;;16.10;5.35;;;;;;;-143.50;100.00;59860.19;4979568;28;20401;-70
2024/04/08 02:07:39;;;;;;;14.38;4.32;;;;;;;-143.50;100.00;59860.19;4972430;28;20030;-71
2024/04/08 02:10:06;;;;;;;15.82;4.57;;;;;;;-143.50;100.00;59860.19;4970568;28;20439;-71
2024/04/08 02:12:32;;;;;;;15.60;4.70;;;;;;;-143.50;100.00;59860.19;4973149;28;20027;-70
2024/04/08 02:14:58;;;;;;;16.85;5.30;;;;;;;-143.50;100.00;59860.19;4971528;28;20048;-70
2024/04/08 02:17:24;;;;;;;16.75;5.18;;;;;;;-143.50;100.00;59860.19;4953635;28;20041;-70
2024/04/08 02:19:50;;;;;;;15.68;4.93;;;;;;;-143.50;100.00;59860.19;4955043;28;20034;-70
2024/04/08 02:22:16;;;;;;;15.90;4.68;;;;;;;-143.50;100.00;59860.19;4954259;28;20082;-71
2024/04/08 02:24:43;;;;;;;16.38;5.43;;;;;;;-143.50;100.00;59860.19;4979631;28;20117;-70
2024/04/08 02:27:09;;;;;;;16.10;5.00;;;;;;;-143.50;100.00;59860.19;4972502;28;20034;-70
2024/04/08 02:29:35;;;;;;;16.80;5.07;;;;;;;-143.50;100.00;59860.19;4957073;28;20031;-70
2024/04/08 02:32:01;;;;;;;17.00;5.07;;;;;;;-143.50;100.00;59860.19;4971810;28;20027;-70
2024/04/08 02:34:28;;;;;;;16.13;4.90;;;;;;;-143.50;100.00;59860.19;4965571;28;20053;-71
2024/04/08 02:36:54;;;;;;;16.67;4.75;;;;;;;-143.50;100.00;59860.19;4964234;28;20117;-71
2024/04/08 02:39:20;;;;;;;16.48;5.65;;;;;;;-143.50;100.00;59860.19;4956216;28;20030;-71
2024/04/08 02:41:46;;;;;;;15.85;5.10;;;;;;;-143.50;100.00;59860.19;4963357;28;20023;-71
2024/04/08 02:44:12;;;;;;;16.33;5.18;;;;;;;-143.50;100.00;59860.19;4954400;28;20035;-71
2024/04/08 02:46:38;;;;;;;15.38;4.82;;;;;;;-143.50;100.00;59860.19;4956570;28;20810;-71
2024/04/08 02:49:04;;;;;;;16.75;4.82;;;;;;;-143.50;100.00;59860.19;4960454;28;20035;-71
2024/04/08 02:51:30;;;;;;;15.15;4.55;;;;;;;-143.50;100.00;59860.19;4967201;28;20038;-70
2024/04/08 02:53:56;;;;;;;17.52;4.72;;;;;;;-143.50;100.00;59860.19;4947319;28;20046;-71
2024/04/08 02:56:23;;;;;;;18.55;5.07;;;;;;;-143.50;100.00;59860.19;4951227;28;20038;-71
2024/04/08 02:58:49;;;;;;;16.98;4.97;;;;;;;-143.50;100.00;59860.19;4971317;28;20397;-71
2024/04/08 03:01:15;;;;;;;15.85;4.90;;;;;;;-143.50;100.00;59860.19;4954555;28;20495;-72
2024/04/08 03:03:42;;;;;;;15.57;4.72;;;;;;;-143.50;100.00;59860.19;4966171;28;20032;-71
2024/04/08 03:06:12;;;;;;;14.82;5.15;;;;;;;-143.50;100.00;59860.19;4968800;28;20039;-71
2024/04/08 03:08:39;;;;;;;17.77;4.88;;;;;;;-143.50;100.00;59860.19;4953820;28;20117;-70
2024/04/08 03:11:06;;;;;;;15.52;4.45;;;;;;;-143.50;100.00;59860.19;4958817;28;20039;-70
2024/04/08 03:13:32;;;;;;;16.75;4.70;;;;;;;-143.50;100.00;59860.19;4967682;28;20030;-71
2024/04/08 03:15:58;;;;;;;18.35;4.82;;;;;;;-143.50;100.00;59860.19;4954217;28;20031;-71
2024/04/08 03:18:25;;;;;;;15.32;4.97;;;;;;;-143.50;100.00;59860.19;4959759;28;20164;-70
2024/04/08 03:20:58;;;;;;;15.93;5.57;;;;;;;-143.50;100.00;59860.19;4977753;28;20035;-70
2024/04/08 03:23:24;;;;;;;16.50;5.28;;;;;;;-143.50;100.00;59860.19;4954253;28;20479;-71
2024/04/08 03:26:04;;;;;;;18.90;5.30;;;;;;;-143.50;100.00;59860.19;4951179;28;20039;-71
2024/04/08 03:28:30;;;;;;;15.80;5.15;;;;;;;-143.50;100.00;59860.19;4975419;28;20110;-71
2024/04/08 03:30:57;;;;;;;15.43;4.95;;;;;;;-143.50;100.00;59860.19;4965336;28;20067;-71
2024/04/08 03:33:24;;;;;;;17.75;4.90;;;;;;;-143.50;100.00;59860.19;4953797;28;20065;-70
2024/04/08 03:35:50;;;;;;;16.75;4.95;;;;;;;-143.50;100.00;59860.19;4960061;28;20061;-70
2024/04/08 03:38:17;;;;;;;15.65;5.20;;;;;;;-143.50;100.00;59860.19;4955719;28;20057;-70
2024/04/08 03:40:44;;;;;;;15.95;4.97;;;;;;;-143.50;100.00;59860.19;4955485;28;20046;-70
2024/04/08 03:43:11;;;;;;;15.57;5.35;;;;;;;-143.50;100.00;59860.19;4954249;28;20035;-70
2024/04/08 03:45:38;;;;;;;16.60;5.30;;;;;;;-143.50;100.00;59860.19;4966187;28;20035;-71
2024/04/08 03:48:05;;;;;;;17.85;5.63;;;;;;;-143.50;100.00;59860.19;4927408;28;20118;-70
2024/04/08 03:50:34;;;;;;;17.38;5.60;;;;;;;-143.50;100.00;59860.19;4977174;28;20038;-71
2024/04/08 03:53:00;;;;;;;17.50;6.25;;;;;;;-143.50;100.00;59860.19;4967238;28;20042;-70
2024/04/08 03:55:30;;;;;;;17.90;5.43;;;;;;;-143.50;100.00;59860.19;4951999;28;20030;-71
2024/04/08 03:57:57;;;;;;;17.17;5.35;;;;;;;-143.50;100.00;59860.19;4955433;28;20077;-71
2024/04/08 04:00:23;;;;;;;16.65;5.88;;;;;;;-143.50;100.00;59860.19;4978601;28;20089;-70
2024/04/08 04:02:51;;;;;;;17.38;6.00;;;;;;;-143.50;100.00;59860.19;4955087;28;20058;-70
2024/04/08 04:05:17;;;;;;;17.90;5.90;;;;;;;-143.50;100.00;59860.19;4969602;28;20028;-71
2024/04/08 04:07:43;;;;;;;16.27;5.60;;;;;;;-143.50;100.00;59860.19;4972394;28;20062;-70
2024/04/08 04:10:09;;;;;;;16.20;5.55;;;;;;;-143.50;100.00;59860.19;4976219;28;20453;-71
2024/04/08 04:12:38;;;;;;;17.60;5.47;;;;;;;-143.50;100.00;59860.19;4972022;28;20731;-70
2024/04/08 04:15:09;;;;;;;17.77;6.18;;;;;;;-143.50;100.00;59860.19;4955670;28;20031;-71
2024/04/08 04:17:35;;;;;;;19.08;6.28;;;;;;;-143.50;100.00;59860.19;4973422;28;20053;-71
2024/04/08 04:20:06;;;;;;;18.67;6.32;;;;;;;-143.50;100.00;59860.19;4976792;28;20054;-70
2024/04/08 04:22:32;;;;;;;18.58;6.60;;;;;;;-143.50;100.00;59860.19;4974224;28;20019;-71
2024/04/08 04:24:58;;;;;;;17.92;6.50;;;;;;;-143.50;100.00;59860.19;4972164;28;20104;-71
2024/04/08 04:27:24;;;;;;;18.27;5.75;;;;;;;-143.50;100.00;59860.19;4963033;28;20026;-70
2024/04/08 04:29:50;;;;;;;19.13;6.70;;;;;;;-143.50;100.00;59860.19;4977978;28;20117;-70
2024/04/08 04:32:16;;;;;;;17.48;7.18;;;;;;;-143.50;100.00;59860.19;4971710;28;20035;-71
2024/04/08 04:34:42;;;;;;;18.40;7.13;;;;;;;-143.50;100.00;59860.19;4974009;28;20433;-70
2024/04/08 04:37:08;;;;;;;20.55;8.15;;;;;;;-143.50;100.00;59860.19;4948443;28;20427;-71
2024/04/08 04:39:35;;;;;;;20.20;7.78;;;;;;;-143.50;100.00;59860.19;4952608;28;20027;-70
2024/04/08 04:42:01;;;;;;;19.33;7.80;;;;;;;-143.50;100.00;59860.19;4970284;28;20077;-71
2024/04/08 04:44:27;;;;;;;19.15;6.93;;;;;;;-143.50;100.00;59860.19;4972551;28;20398;-71
2024/04/08 04:46:54;;;;;;;19.13;7.13;;;;;;;-143.50;100.00;59860.19;4961266;28;20065;-71
2024/04/08 04:49:20;;;;;;;18.02;6.82;;;;;;;-143.50;100.00;59860.19;4959946;28;20026;-71
2024/04/08 04:51:46;;;;;;;18.65;5.78;;;;;;;-143.50;100.00;59860.19;4952730;28;20046;-71
2024/04/08 04:54:12;;;;;;;17.58;6.18;;;;;;;-143.50;100.00;59860.19;4941808;28;20086;-70
2024/04/08 04:56:38;;;;;;;17.73;5.80;;;;;;;-143.50;100.00;59860.19;4962464;28;20443;-70
2024/04/08 04:59:04;;;;;;;18.40;6.20;;;;;;;-143.50;100.00;59860.19;4969031;28;20039;-71
2024/04/08 05:01:30;;;;;;;18.10;5.82;;;;;;;-143.50;100.00;59860.19;4953058;28;20664;-70
2024/04/08 05:03:57;;;;;;;20.35;5.85;;;;;;;-143.50;100.00;59860.19;4973495;28;20043;-70
2024/04/08 05:06:23;;;;;;;17.15;5.53;;;;;;;-143.50;100.00;59860.19;4973631;28;20031;-70
2024/04/08 05:08:49;;;;;;;19.75;5.90;;;;;;;-143.50;100.00;59860.19;4956852;28;20435;-70
2024/04/08 05:11:15;;;;;;;18.45;6.07;;;;;;;-143.50;100.00;59860.19;4966279;28;20125;-70
2024/04/08 05:13:41;;;;;;;20.55;6.60;;;;;;;-143.50;100.00;59860.19;4966736;28;20073;-70
2024/04/08 05:16:11;;;;;;;19.38;6.40;;;;;;;-143.50;100.00;59860.19;4969267;28;20047;-70
2024/04/08 05:18:37;;;;;;;18.67;6.03;;;;;;;-143.50;100.00;59860.19;4951124;28;20031;-70
2024/04/08 05:21:04;;;;;;;19.63;7.80;;;;;;;-143.50;100.00;59860.19;4961829;28;20035;-70
2024/04/08 05:23:31;;;;;;;19.73;7.07;;;;;;;-143.50;100.00;59860.19;4972837;28;20031;-70
2024/04/08 05:25:57;;;;;;;19.40;7.72;;;;;;;-143.50;100.00;59860.19;4969993;28;20069;-70
2024/04/08 05:28:23;;;;;;;22.75;8.05;;;;;;;-143.50;100.00;59860.19;4953203;28;20478;-71
2024/04/08 05:30:50;;;;;;;23.75;8.30;;;;;;;-143.50;100.00;59860.19;4963928;28;20093;-70
2024/04/08 05:33:16;;;;;;;20.05;7.70;;;;;;;-143.50;100.00;59860.19;4979221;28;20074;-70
2024/04/08 05:35:46;;;;;;;21.02;7.93;;;;;;;-143.50;100.00;59860.19;4953491;28;20442;-70
2024/04/08 05:38:13;;;;;;;19.75;8.05;;;;;;;-143.50;100.00;59860.19;4969702;28;20038;-71
2024/04/08 05:40:40;;;;;;;19.13;7.57;;;;;;;-143.50;100.00;59860.19;4973067;28;20037;-70
2024/04/08 05:43:06;;;;;;;19.83;7.45;;;;;;;-143.50;100.00;59860.19;4964375;28;20027;-71
2024/04/08 05:45:33;;;;;;;18.30;7.50;;;;;;;-143.50;100.00;59860.19;4956669;28;21249;-70
2024/04/08 05:47:59;;;;;;;19.98;7.28;;;;;;;-143.50;100.00;59860.19;4965037;28;20036;-71
2024/04/08 05:50:25;;;;;;;19.95;7.93;;;;;;;-143.50;100.00;59860.19;4970002;28;20031;-70
2024/04/08 05:52:53;;;;;;;17.48;7.20;;;;;;;-143.50;100.00;59860.19;4943412;28;20027;-70
2024/04/08 05:55:19;;;;;;;21.15;6.95;;;;;;;-143.50;100.00;59860.19;4951907;28;20037;-70
2024/04/08 05:57:45;;;;;;;19.67;6.72;;;;;;;-143.50;100.00;59860.19;4948184;28;20058;-70
2024/04/08 06:00:12;;;;;;;21.75;7.13;;;;;;;-143.50;100.00;59860.19;4955184;28;20101;-69
2024/04/08 06:02:39;;;;;;;19.77;6.43;;;;;;;-143.50;100.00;59860.19;4967011;28;20065;-71
2024/04/08 06:05:05;;;;;;;19.67;6.57;;;;;;;-143.50;100.00;59860.19;4967871;28;20521;-70
2024/04/08 06:07:31;;;;;;;17.90;5.82;;;;;;;-143.50;100.00;59860.19;4950900;28;20058;-70
2024/04/08 06:09:58;;;;;;;18.25;5.50;;;;;;;-143.50;100.00;59860.19;4955358;28;20026;-71
2024/04/08 06:12:24;;;;;;;17.55;5.80;;;;;;;-143.50;100.00;59860.19;4972636;28;20062;-70
2024/04/08 06:14:50;;;;;;;17.58;5.95;;;;;;;-143.50;100.00;59860.19;4973150;28;20038;-70
2024/04/08 06:17:16;;;;;;;19.33;5.53;;;;;;;-143.50;100.00;59860.19;4957729;28;20073;-70
2024/04/08 06:19:42;;;;;;;17.75;5.10;;;;;;;-143.50;100.00;59860.19;4977361;28;20548;-70
2024/04/08 06:22:09;;;;;;;19.70;5.82;;;;;;;-143.50;100.00;59860.19;4963246;28;20069;-70
2024/04/08 06:24:35;;;;;;;16.67;5.68;;;;;;;-143.50;100.00;59860.19;4955260;28;20487;-71
2024/04/08 06:27:01;;;;;;;18.55;6.05;;;;;;;-143.50;100.00;59860.19;4964554;28;20147;-71
2024/04/08 06:29:27;;;;;;;16.35;5.50;;;;;;;-143.50;100.00;59860.19;4977100;28;20050;-71
2024/04/08 06:31:53;;;;;;;18.48;6.25;;;;;;;-143.50;100.00;59860.19;4973437;28;20058;-70
2024/04/08 06:34:20;;;;;;;16.77;5.82;;;;;;;-143.50;100.00;59860.19;4955055;28;20039;-71
2024/04/08 06:36:46;;;;;;;16.65;5.65;;;;;;;-143.50;100.00;59860.19;4973584;28;20093;-70
2024/04/08 06:39:12;;;;;;;17.30;5.80;;;;;;;-143.50;100.00;59860.19;4976521;28;20041;-70
2024/04/08 06:41:40;;;;;;;16.45;5.88;;;;;;;-143.50;100.00;59860.19;4956191;28;20098;-71
2024/04/08 06:44:06;;;;;;;18.67;5.80;;;;;;;-143.50;100.00;59860.19;4973041;28;20029;-70
2024/04/08 06:46:32;;;;;;;18.00;5.70;;;;;;;-143.50;100.00;59860.19;4965891;28;20063;-70
2024/04/08 06:48:58;;;;;;;16.65;5.55;;;;;;;-143.50;100.00;59860.19;4955203;28;20042;-71
2024/04/08 06:51:24;;;;;;;17.00;5.80;;;;;;;-143.50;100.00;59860.19;4956406;28;20065;-71
2024/04/08 06:53:50;;;;;;;19.30;5.82;;;;;;;-143.50;100.00;59860.19;4970725;28;20490;-70
2024/04/08 06:56:16;;;;;;;16.90;5.15;;;;;;;-143.50;100.00;59860.19;4970859;28;20039;-69
2024/04/08 06:58:42;;;;;;;16.88;5.60;;;;;;;-143.50;100.00;59860.19;4960897;28;20031;-72
2024/04/08 07:01:09;;;;;;;17.35;6.03;;;;;;;-143.50;100.00;59860.19;4974386;28;20030;-70
2024/04/08 07:03:35;;;;;;;16.77;5.45;;;;;;;-143.50;100.00;59860.19;4972569;28;20070;-71
2024/04/08 07:06:01;;;;;;;18.73;5.90;;;;;;;-143.50;100.00;59860.19;4972338;28;20042;-70
2024/04/08 07:08:27;;;;;;;16.95;5.18;;;;;;;-143.50;100.00;59860.19;4945954;28;20037;-71
2024/04/08 07:10:53;;;;;;;17.95;6.00;;;;;;;-143.50;100.00;59860.19;4968146;28;20451;-70
2024/04/08 07:13:19;;;;;;;18.40;6.07;;;;;;;-143.50;100.00;59860.19;4972459;28;20034;-71
2024/04/08 07:15:58;;;;;;;16.92;5.55;;;;;;;-143.50;100.00;59860.19;4947545;28;20522;-71
2024/04/08 07:18:24;;;;;;;16.02;5.03;;;;;;;-143.50;100.00;59860.19;4972461;28;20038;-70
2024/04/08 07:20:50;;;;;;;17.02;5.53;;;;;;;-143.50;100.00;59860.19;4955115;28;20041;-71
2024/04/08 07:23:16;;;;;;;17.35;5.50;;;;;;;-143.50;100.00;59860.19;4971503;28;20057;-71
2024/04/08 07:25:44;;;;;;;18.38;5.78;;;;;;;-143.50;100.00;59860.19;4974291;28;20034;-71
2024/04/08 07:28:11;;;;;;;15.93;5.57;;;;;;;-143.50;100.00;59860.19;4957141;28;20046;-71
2024/04/08 07:30:38;;;;;;;17.67;5.45;;;;;;;-143.50;100.00;59860.19;4952348;28;20031;-70
2024/04/08 07:33:05;;;;;;;17.23;5.70;;;;;;;-143.50;100.00;59860.19;4947559;28;20159;-72
2024/04/08 07:35:32;;;;;;;15.38;5.45;;;;;;;-143.50;100.00;59860.19;4976495;28;20031;-71
2024/04/08 07:37:58;;;;;;;16.77;5.65;;;;;;;-143.50;100.00;59860.19;4963218;28;20074;-71
2024/04/08 07:40:25;;;;;;;19.92;8.25;;;;;;;-143.50;100.00;59860.19;4991277;28;20077;-72
2024/04/08 07:42:51;;;;;;;16.65;5.47;;;;;;;-143.50;100.00;59860.19;4974767;28;20049;-72
2024/04/08 07:45:17;;;;;;;15.73;5.22;;;;;;;-143.50;100.00;59860.19;4980533;28;20030;-72
2024/04/08 07:47:46;;;;;;;17.48;5.68;;;;;;;-143.50;100.00;59860.19;4967957;28;20031;-71
2024/04/08 07:50:12;;;;;;;16.15;5.85;;;;;;;-143.50;100.00;59860.19;4971351;28;20042;-70
2024/04/08 07:52:39;;;;;;;16.00;5.45;;;;;;;-143.50;100.00;59860.19;4989900;28;20042;-71
2024/04/08 07:55:06;;;;;;;17.63;5.78;;;;;;;-143.50;100.00;59860.19;4972180;28;20035;-71
2024/04/08 07:57:32;;;;;;;16.48;5.88;;;;;;;-143.50;100.00;59860.19;4973735;28;20491;-71
2024/04/08 07:59:59;;;;;;;16.23;5.47;;;;;;;-143.50;100.00;59860.19;4971994;28;20022;-71
2024/04/08 08:02:25;;;;;;;18.05;5.93;;;;;;;-143.50;100.00;59860.19;4959058;28;20031;-70
2024/04/08 08:04:52;;;;;;;16.30;5.60;;;;;;;-143.50;100.00;59860.19;4970443;28;20452;-71
2024/04/08 08:07:18;;;;;;;17.35;5.75;;;;;;;-143.50;100.00;59860.19;4970505;28;20641;-71
2024/04/08 08:09:44;;;;;;;16.35;5.90;;;;;;;-143.50;100.00;59860.19;4975454;28;20038;-71
2024/04/08 08:12:10;;;;;;;16.95;6.15;;;;;;;-143.50;100.00;59860.19;4958757;28;20043;-70
2024/04/08 08:14:36;;;;;;;17.10;5.72;;;;;;;-143.50;100.00;59860.19;4969679;28;20110;-71
2024/04/08 08:17:03;;;;;;;17.75;5.88;;;;;;;-143.50;100.00;59860.19;4956130;28;20081;-71
2024/04/08 08:19:29;;;;;;;15.73;5.60;;;;;;;-143.50;100.00;59860.19;4960926;28;20134;-72
2024/04/08 08:21:55;;;;;;;17.95;5.88;;;;;;;-143.50;100.00;59860.19;4968842;28;20102;-71
2024/04/08 08:24:21;;;;;;;17.25;5.55;;;;;;;-143.50;100.00;59860.19;4998164;23;20051;-72
2024/04/08 08:26:47;;;;;;;17.92;5.68;;;;;;;-143.50;100.00;59860.19;4986585;28;20536;-71
2024/04/08 08:29:13;;;;;;;15.60;5.70;;;;;;;-143.50;100.00;59860.19;4973676;28;20780;-71
2024/04/08 08:31:39;;;;;;;16.88;6.22;;;;;;;-143.50;100.00;59860.19;4966706;28;20035;-71
2024/04/08 08:34:06;;;;;;;17.88;6.40;;;;;;;-143.50;100.00;59860.19;4978833;28;20038;-71
2024/04/08 08:36:32;;;;;;;19.02;6.55;;;;;;;-143.50;100.00;59860.19;4978494;28;20101;-72
2024/04/08 08:38:59;;;;;;;16.30;6.10;;;;;;;-143.50;100.00;59860.19;4987566;28;20042;-72
2024/04/08 08:41:27;;;;;;;18.02;6.70;;;;;;;-143.50;100.00;59860.19;4986857;28;20537;-70
2024/04/08 08:43:57;;;;;;;18.40;7.60;;;;;;;-143.50;100.00;59860.19;4977342;28;20026;-71
2024/04/08 08:46:25;;;;;;;18.30;7.45;;;;;;;-143.50;100.00;59860.19;4966164;28;20030;-70
2024/04/08 08:48:56;;;;;;;18.13;6.90;;;;;;;-143.50;100.00;59860.19;4978315;28;20041;-70
2024/04/08 08:51:22;;;;;;;18.20;7.07;;;;;;;-143.50;100.00;59860.19;4974298;28;20042;-70
2024/04/08 08:53:48;;;;;;;18.15;6.90;;;;;;;-143.50;100.00;59860.19;4977797;28;20034;-71
2024/04/08 08:56:17;;;;;;;19.65;7.10;;;;;;;-143.50;100.00;59860.19;4989579;28;20486;-71
2024/04/08 08:58:52;;;;;;;18.85;7.25;;;;;;;-143.50;100.00;59860.19;4994531;28;20057;-71
2024/04/08 09:01:18;;;;;;;18.85;7.40;;;;;;;-143.50;100.00;59860.19;4977387;28;20030;-70
2024/04/08 09:03:45;;;;;;;18.67;6.97;;;;;;;-143.50;100.00;59860.19;4967178;28;20092;-71
2024/04/08 09:06:11;;;;;;;20.00;7.10;;;;;;;-143.50;100.00;59860.19;4992401;28;20469;-70
2024/04/08 09:08:37;;;;;;;19.33;7.28;;;;;;;-143.50;100.00;59860.19;4990439;28;20406;-70
2024/04/08 09:11:09;;;;;;;20.45;7.03;;;;;;;-143.50;100.00;59860.19;4990615;28;20042;-70
2024/04/08 09:13:35;;;;;;;19.67;8.10;;;;;;;-143.50;100.00;59860.19;4988926;28;20066;-71
2024/04/08 09:16:02;;;;;;;19.20;7.30;;;;;;;-143.50;100.00;59860.19;4993800;28;20082;-70
2024/04/08 09:18:28;;;;;;;24.80;9.00;;;;;;;-143.50;100.00;59860.19;4989210;28;20406;-70
2024/04/08 09:20:54;;;;;;;19.15;8.10;;;;;;;-143.50;100.00;59860.19;4988063;28;20026;-71
2024/04/08 09:23:20;;;;;;;19.08;7.60;;;;;;;-143.50;100.00;59860.19;4988966;28;20061;-70
2024/04/08 09:25:46;;;;;;;20.23;8.10;;;;;;;-143.50;100.00;59860.19;4990564;28;20045;-71
2024/04/08 09:28:12;;;;;;;20.17;7.45;;;;;;;-143.50;100.00;59860.19;4971623;28;20031;-70
2024/04/08 09:30:39;;;;;;;20.35;7.80;;;;;;;-143.50;100.00;59860.19;4988932;28;20061;-70
2024/04/08 09:33:09;;;;;;;18.10;7.38;;;;;;;-143.50;100.00;59860.19;4976187;28;20109;-70
2024/04/08 09:35:39;;;;;;;20.20;7.75;;;;;;;-143.50;100.00;59860.19;4965084;28;20139;-71
2024/04/08 09:38:11;;;;;;;17.55;7.07;;;;;;;-143.50;100.00;59860.19;4993320;28;20085;-71
2024/04/08 09:40:38;;;;;;;19.57;7.57;;;;;;;-143.50;100.00;59860.19;4960382;28;20038;-71
2024/04/08 09:43:04;;;;;;;19.60;7.57;;;;;;;-143.50;100.00;59860.19;4974210;28;20035;-70
2024/04/08 09:45:30;;;;;;;17.63;7.20;;;;;;;-143.50;100.00;59860.19;4971155;28;20082;-70
2024/04/08 09:47:57;;;;;;;21.48;7.85;;;;;;;-143.50;100.00;59860.19;4975590;28;20539;-70
2024/04/08 09:50:23;;;;;;;21.13;8.00;;;;;;;-143.50;100.00;59860.19;4971337;28;20046;-70
2024/04/08 09:52:50;;;;;;;18.13;7.78;;;;;;;-143.50;100.00;59860.19;4983782;28;20026;-69
2024/04/08 09:55:16;;;;;;;18.60;8.10;;;;;;;-143.50;100.00;59860.19;4992066;28;20030;-69
2024/04/08 09:57:43;;;;;;;21.80;7.75;;;;;;;-143.50;100.00;59860.19;4979009;28;20034;-70
2024/04/08 10:00:15;;;;;;;19.85;7.78;;;;;;;-143.50;100.00;59860.19;4987483;28;20451;-70
2024/04/08 10:02:43;;;;;;;20.05;7.90;;;;;;;-143.50;100.00;59860.19;4993061;28;20022;-70
2024/04/08 10:05:13;;;;;;;19.60;8.25;;;;;;;-143.50;100.00;59860.19;4993218;28;20092;-69
2024/04/08 10:07:40;;;;;;;19.50;7.97;;;;;;;-143.50;100.00;59860.19;4982206;28;20088;-70
2024/04/08 10:10:07;;;;;;;18.92;7.50;;;;;;;-143.50;100.00;59860.19;4982304;28;20035;-70
2024/04/08 10:12:34;;;;;;;18.75;7.57;;;;;;;-143.50;100.00;59860.19;4988815;28;20023;-70
2024/04/08 10:15:09;;;;;;;19.17;7.93;;;;;;;-143.50;100.00;59860.19;4993132;28;20034;-70
2024/04/08 10:17:36;;;;;;;22.88;7.78;;;;;;;-143.50;100.00;59860.19;4988782;28;20080;-70
2024/04/08 10:20:05;;;;;;;22.35;7.88;;;;;;;-143.50;100.00;59860.19;4988584;28;20031;-70
2024/04/08 10:22:35;;;;;;;20.88;7.65;;;;;;;-143.50;100.00;59860.19;4983487;28;20058;-70
2024/04/08 10:25:01;;;;;;;21.77;7.97;;;;;;;-143.50;100.00;59860.19;4972099;28;20045;-70
2024/04/08 10:27:28;;;;;;;19.15;7.32;;;;;;;-143.50;100.00;59860.19;4992953;28;20030;-70
2024/04/08 10:29:58;;;;;;;19.23;8.05;;;;;;;-143.50;100.00;59860.19;4985810;28;20425;-70
2024/04/08 10:32:24;;;;;;;18.70;8.00;;;;;;;-143.50;100.00;59860.19;4975623;28;20041;-70
2024/04/08 10:34:53;;;;;;;19.40;7.80;;;;;;;-143.50;100.00;59860.19;4972121;28;20039;-70
2024/04/08 10:37:19;;;;;;;20.00;7.45;;;;;;;-143.50;100.00;59860.19;4977349;28;20391;-69
2024/04/08 10:39:45;;;;;;;21.75;7.03;;;;;;;-143.50;100.00;59860.19;4987864;28;20030;-70
2024/04/08 10:42:14;;;;;;;18.83;7.15;;;;;;;-143.50;100.00;59860.19;4985337;28;20030;-70
2024/04/08 10:44:40;;;;;;;20.13;6.80;;;;;;;-143.50;100.00;59860.19;4975270;28;20034;-69
2024/04/08 10:47:09;;;;;;;18.60;6.35;;;;;;;-143.50;100.00;59860.19;4986606;28;20030;-70
2024/04/08 10:49:36;;;;;;;17.10;5.55;;;;;;;-143.50;100.00;59860.19;4975133;28;20045;-70
2024/04/08 10:52:02;;;;;;;18.02;5.85;;;;;;;-143.50;100.00;59860.19;4985164;28;20172;-71
2024/04/08 10:54:30;;;;;;;18.00;5.80;;;;;;;-143.50;100.00;59860.19;4984416;28;20030;-70
2024/04/08 10:56:56;;;;;;;18.65;5.47;;;;;;;-143.50;100.00;59860.19;4976265;28;20116;-70
2024/04/08 10:59:22;;;;;;;21.27;5.25;;;;;;;-143.50;100.00;59860.19;4987795;28;20041;-70